sensor_id;sensor_type;location;lat;lon;timestamp;temperature;humidity
16477;DHT22;8349;50.928;6.376;2022-12-29T04:01:24;12.00;99.90
16477;DHT22;8349;50.928;6.376;2022-12-29T04:03:52;12.00;99.90
16477;DHT22;8349;50.928;6.376;2022-12-29T04:06:19;12.00;99.90
16477;DHT22;8349;50.928;6.376;2022-12-29T04:08:53;12.00;99.90
16477;DHT22;8349;50.928;6.376;2022-12-29T04:11:20;12.00;99.90
16477;DHT22;8349;50.928;6.376;2022-12-29T04:13:48;12.00;99.90
16477;DHT22;8349;50.928;6.376;2022-12-29T04:16:18;12.00;99.90
16477;DHT22;8349;50.928;6.376;2022-12-29T04:18:47;12.20;99.90
16477;DHT22;8349;50.928;6.376;2022-12-29T04:21:14;12.30;99.90
16477;DHT22;8349;50.928;6.376;2022-12-29T04:23:42;12.30;99.90
16477;DHT22;8349;50.928;6.376;2022-12-29T04:26:09;12.40;99.90
16477;DHT22;8349;50.928;6.376;2022-12-29T04:28:54;12.40;99.90
16477;DHT22;8349;50.928;6.376;2022-12-29T04:31:44;12.40;99.90
16477;DHT22;8349;50.928;6.376;2022-12-29T04:34:12;12.40;99.90
16477;DHT22;8349;50.928;6.376;2022-12-29T04:36:39;12.30;99.90
16477;DHT22;8349;50.928;6.376;2022-12-29T04:39:06;12.30;99.90
16477;DHT22;8349;50.928;6.376;2022-12-29T04:41:34;12.20;99.90
16477;DHT22;8349;50.928;6.376;2022-12-29T04:44:01;12.20;99.90
16477;DHT22;8349;50.928;6.376;2022-12-29T04:46:28;12.20;99.90
16477;DHT22;8349;50.928;6.376;2022-12-29T04:49:01;12.20;99.90
16477;DHT22;8349;50.928;6.376;2022-12-29T04:51:48;12.10;99.90
16477;DHT22;8349;50.928;6.376;2022-12-29T04:54:16;12.20;99.90
16477;DHT22;8349;50.928;6.376;2022-12-29T04:56:47;12.30;99.90
16477;DHT22;8349;50.928;6.376;2022-12-29T04:59:15;12.20;99.90
16477;DHT22;8349;50.928;6.376;2022-12-29T05:01:45;12.20;99.90
16477;DHT22;8349;50.928;6.376;2022-12-29T05:04:11;12.30;99.90
16477;DHT22;8349;50.928;6.376;2022-12-29T05:06:41;12.30;99.90
16477;DHT22;8349;50.928;6.376;2022-12-29T05:09:09;12.20;99.90
16477;DHT22;8349;50.928;6.376;2022-12-29T05:11:37;12.10;99.90
16477;DHT22;8349;50.928;6.376;2022-12-29T05:14:03;12.20;99.90
16477;DHT22;8349;50.928;6.376;2022-12-29T05:16:32;12.20;99.90
16477;DHT22;8349;50.928;6.376;2022-12-29T05:18:59;12.20;99.90
16477;DHT22;8349;50.928;6.376;2022-12-29T05:21:25;12.20;99.90
16477;DHT22;8349;50.928;6.376;2022-12-29T05:23:53;12.10;99.90
16477;DHT22;8349;50.928;6.376;2022-12-29T05:26:22;12.10;99.90
16477;DHT22;8349;50.928;6.376;2022-12-29T05:29:06;12.00;99.90
16477;DHT22;8349;50.928;6.376;2022-12-29T05:31:33;12.00;99.90
16477;DHT22;8349;50.928;6.376;2022-12-29T05:34:01;12.00;99.90
16477;DHT22;8349;50.928;6.376;2022-12-29T05:36:28;11.90;99.90
16477;DHT22;8349;50.928;6.376;2022-12-29T05:38:58;11.80;99.90
16477;DHT22;8349;50.928;6.376;2022-12-29T05:41:26;11.80;99.90
16477;DHT22;8349;50.928;6.376;2022-12-29T05:43:59;11.70;99.90
16477;DHT22;8349;50.928;6.376;2022-12-29T05:46:33;11.80;99.90
16477;DHT22;8349;50.928;6.376;2022-12-29T05:49:08;11.80;99.90
16477;DHT22;8349;50.928;6.376;2022-12-29T05:51:54;11.70;99.90
16477;DHT22;8349;50.928;6.376;2022-12-29T05:54:21;11.70;99.90
16477;DHT22;8349;50.928;6.376;2022-12-29T05:56:49;11.70;99.90
16477;DHT22;8349;50.928;6.376;2022-12-29T05:59:16;11.70;99.90
16477;DHT22;8349;50.928;6.376;2022-12-29T06:01:43;11.80;99.90
16477;DHT22;8349;50.928;6.376;2022-12-29T06:04:11;11.80;99.90
16477;DHT22;8349;50.928;6.376;2022-12-29T06:06:38;11.80;99.90
16477;DHT22;8349;50.928;6.376;2022-12-29T06:09:10;11.70;99.90
16477;DHT22;8349;50.928;6.376;2022-12-29T06:11:36;11.70;99.90
16477;DHT22;8349;50.928;6.376;2022-12-29T06:14:05;11.70;99.90
16477;DHT22;8349;50.928;6.376;2022-12-29T06:16:32;11.70;99.90
16477;DHT22;8349;50.928;6.376;2022-12-29T06:19:02;11.70;99.90
16477;DHT22;8349;50.928;6.376;2022-12-29T06:21:30;11.60;99.90
16477;DHT22;8349;50.928;6.376;2022-12-29T06:23:59;11.60;99.90
16477;DHT22;8349;50.928;6.376;2022-12-29T06:26:26;11.60;99.90
16477;DHT22;8349;50.928;6.376;2022-12-29T06:28:53;11.70;99.90
16477;DHT22;8349;50.928;6.376;2022-12-29T06:31:21;11.60;99.90
16477;DHT22;8349;50.928;6.376;2022-12-29T06:33:48;11.60;99.90
16477;DHT22;8349;50.928;6.376;2022-12-29T06:36:15;11.60;99.90
16477;DHT22;8349;50.928;6.376;2022-12-29T06:38:42;11.60;99.90
16477;DHT22;8349;50.928;6.376;2022-12-29T06:41:08;11.60;99.90
16477;DHT22;8349;50.928;6.376;2022-12-29T06:43:54;11.60;99.90
16477;DHT22;8349;50.928;6.376;2022-12-29T06:46:37;11.60;99.90
16477;DHT22;8349;50.928;6.376;2022-12-29T06:49:04;11.70;99.90
16477;DHT22;8349;50.928;6.376;2022-12-29T06:51:30;11.60;99.90
16477;DHT22;8349;50.928;6.376;2022-12-29T06:53:57;11.60;99.90
16477;DHT22;8349;50.928;6.376;2022-12-29T06:56:24;11.60;99.90
16477;DHT22;8349;50.928;6.376;2022-12-29T06:58:51;11.60;99.90
16477;DHT22;8349;50.928;6.376;2022-12-29T07:01:18;11.60;99.90
16477;DHT22;8349;50.928;6.376;2022-12-29T07:03:46;11.70;99.90
16477;DHT22;8349;50.928;6.376;2022-12-29T07:06:13;11.70;99.90
16477;DHT22;8349;50.928;6.376;2022-12-29T07:08:40;11.70;99.90
16477;DHT22;8349;50.928;6.376;2022-12-29T07:11:06;11.60;99.90
16477;DHT22;8349;50.928;6.376;2022-12-29T07:13:34;11.60;99.90
16477;DHT22;8349;50.928;6.376;2022-12-29T07:16:04;11.60;99.90
16477;DHT22;8349;50.928;6.376;2022-12-29T07:18:31;11.60;99.90
16477;DHT22;8349;50.928;6.376;2022-12-29T07:20:59;11.60;99.90
16477;DHT22;8349;50.928;6.376;2022-12-29T07:23:26;11.60;99.90
16477;DHT22;8349;50.928;6.376;2022-12-29T07:25:58;11.60;99.90
16477;DHT22;8349;50.928;6.376;2022-12-29T07:28:25;11.60;99.90
16477;DHT22;8349;50.928;6.376;2022-12-29T07:30:51;11.60;99.90
16477;DHT22;8349;50.928;6.376;2022-12-29T07:33:18;11.60;99.90
16477;DHT22;8349;50.928;6.376;2022-12-29T07:35:45;11.60;99.90
16477;DHT22;8349;50.928;6.376;2022-12-29T07:38:13;11.50;99.90
16477;DHT22;8349;50.928;6.376;2022-12-29T07:40:40;11.50;99.90
16477;DHT22;8349;50.928;6.376;2022-12-29T07:43:07;11.40;99.90
16477;DHT22;8349;50.928;6.376;2022-12-29T07:45:40;11.40;99.90
16477;DHT22;8349;50.928;6.376;2022-12-29T07:48:07;11.30;99.90
16477;DHT22;8349;50.928;6.376;2022-12-29T07:50:34;11.30;99.90
16477;DHT22;8349;50.928;6.376;2022-12-29T07:53:02;11.30;99.90
16477;DHT22;8349;50.928;6.376;2022-12-29T07:55:30;11.30;99.90
16477;DHT22;8349;50.928;6.376;2022-12-29T07:57:57;11.30;99.90
16477;DHT22;8349;50.928;6.376;2022-12-29T08:00:23;11.30;99.90
16477;DHT22;8349;50.928;6.376;2022-12-29T08:02:50;11.20;99.90
16477;DHT22;8349;50.928;6.376;2022-12-29T08:05:17;11.10;99.90
16477;DHT22;8349;50.928;6.376;2022-12-29T08:07:44;11.20;99.90
16477;DHT22;8349;50.928;6.376;2022-12-29T08:10:12;11.20;99.90
16477;DHT22;8349;50.928;6.376;2022-12-29T08:12:40;11.20;99.90
16477;DHT22;8349;50.928;6.376;2022-12-29T08:15:08;11.30;99.90
16477;DHT22;8349;50.928;6.376;2022-12-29T08:17:35;11.20;99.90
16477;DHT22;8349;50.928;6.376;2022-12-29T08:20:02;11.30;99.90
16477;DHT22;8349;50.928;6.376;2022-12-29T08:22:29;11.30;99.90
16477;DHT22;8349;50.928;6.376;2022-12-29T08:24:55;11.30;99.90
16477;DHT22;8349;50.928;6.376;2022-12-29T08:27:22;11.30;99.90
16477;DHT22;8349;50.928;6.376;2022-12-29T08:29:51;11.30;99.90
16477;DHT22;8349;50.928;6.376;2022-12-29T08:32:17;11.40;99.90
16477;DHT22;8349;50.928;6.376;2022-12-29T08:34:45;11.50;99.90
16477;DHT22;8349;50.928;6.376;2022-12-29T08:37:11;11.50;99.90
16477;DHT22;8349;50.928;6.376;2022-12-29T08:39:38;11.60;99.90
16477;DHT22;8349;50.928;6.376;2022-12-29T08:42:05;11.60;99.90
16477;DHT22;8349;50.928;6.376;2022-12-29T08:44:32;11.70;99.90
16477;DHT22;8349;50.928;6.376;2022-12-29T08:47:00;11.50;99.90
16477;DHT22;8349;50.928;6.376;2022-12-29T08:49:27;11.20;99.90
16477;DHT22;8349;50.928;6.376;2022-12-29T08:51:54;11.20;99.90
16477;DHT22;8349;50.928;6.376;2022-12-29T08:54:20;11.20;99.90
16477;DHT22;8349;50.928;6.376;2022-12-29T08:56:48;11.30;99.90
16477;DHT22;8349;50.928;6.376;2022-12-29T08:59:16;11.40;99.90
16477;DHT22;8349;50.928;6.376;2022-12-29T09:01:45;11.50;99.90
16477;DHT22;8349;50.928;6.376;2022-12-29T09:04:13;11.60;99.90
16477;DHT22;8349;50.928;6.376;2022-12-29T09:06:40;11.60;99.90
16477;DHT22;8349;50.928;6.376;2022-12-29T09:09:07;11.60;99.90
16477;DHT22;8349;50.928;6.376;2022-12-29T09:11:34;11.60;99.90
16477;DHT22;8349;50.928;6.376;2022-12-29T09:14:00;11.70;99.90
16477;DHT22;8349;50.928;6.376;2022-12-29T09:16:27;11.70;99.90
16477;DHT22;8349;50.928;6.376;2022-12-29T09:18:54;11.70;99.90
16477;DHT22;8349;50.928;6.376;2022-12-29T09:21:22;11.70;99.90
16477;DHT22;8349;50.928;6.376;2022-12-29T09:23:49;11.70;99.90
16477;DHT22;8349;50.928;6.376;2022-12-29T09:26:16;11.70;99.90
16477;DHT22;8349;50.928;6.376;2022-12-29T09:28:42;11.70;99.90
16477;DHT22;8349;50.928;6.376;2022-12-29T09:31:10;11.70;99.90
16477;DHT22;8349;50.928;6.376;2022-12-29T09:33:36;11.70;99.90
16477;DHT22;8349;50.928;6.376;2022-12-29T09:36:03;11.70;99.90
16477;DHT22;8349;50.928;6.376;2022-12-29T09:38:31;11.80;99.90
16477;DHT22;8349;50.928;6.376;2022-12-29T09:40:59;11.80;99.90
16477;DHT22;8349;50.928;6.376;2022-12-29T09:46:12;11.90;99.90
16477;DHT22;8349;50.928;6.376;2022-12-29T09:48:43;11.80;99.90
16477;DHT22;8349;50.928;6.376;2022-12-29T09:51:11;11.80;99.90
16477;DHT22;8349;50.928;6.376;2022-12-29T09:53:41;11.80;99.90
16477;DHT22;8349;50.928;6.376;2022-12-29T09:56:13;11.90;99.90
16477;DHT22;8349;50.928;6.376;2022-12-29T09:58:41;11.90;99.90
16477;DHT22;8349;50.928;6.376;2022-12-29T10:01:14;12.00;99.90
16477;DHT22;8349;50.928;6.376;2022-12-29T10:03:45;11.80;99.90
16477;DHT22;8349;50.928;6.376;2022-12-29T10:06:13;11.80;99.90
16477;DHT22;8349;50.928;6.376;2022-12-29T10:08:44;11.80;99.90
16477;DHT22;8349;50.928;6.376;2022-12-29T10:11:17;11.80;99.90
16477;DHT22;8349;50.928;6.376;2022-12-29T10:13:51;11.90;99.90
16477;DHT22;8349;50.928;6.376;2022-12-29T10:16:23;11.90;99.90
16477;DHT22;8349;50.928;6.376;2022-12-29T10:18:56;12.00;99.90
16477;DHT22;8349;50.928;6.376;2022-12-29T10:21:32;12.00;99.90
16477;DHT22;8349;50.928;6.376;2022-12-29T10:24:03;12.10;99.90
16477;DHT22;8349;50.928;6.376;2022-12-29T10:26:31;12.20;99.90
16477;DHT22;8349;50.928;6.376;2022-12-29T10:29:03;12.40;99.90
16477;DHT22;8349;50.928;6.376;2022-12-29T10:31:32;13.30;99.90
16477;DHT22;8349;50.928;6.376;2022-12-29T10:34:00;14.80;99.90
16477;DHT22;8349;50.928;6.376;2022-12-29T10:36:29;15.90;99.90
16477;DHT22;8349;50.928;6.376;2022-12-29T10:39:00;16.90;99.90
16477;DHT22;8349;50.928;6.376;2022-12-29T10:41:32;16.30;99.90
16477;DHT22;8349;50.928;6.376;2022-12-29T10:44:02;17.40;99.90
16477;DHT22;8349;50.928;6.376;2022-12-29T10:46:30;17.00;99.90
16477;DHT22;8349;50.928;6.376;2022-12-29T10:48:59;17.50;99.90
16477;DHT22;8349;50.928;6.376;2022-12-29T10:51:28;18.00;99.90
16477;DHT22;8349;50.928;6.376;2022-12-29T10:53:57;18.00;99.90
16477;DHT22;8349;50.928;6.376;2022-12-29T10:56:32;17.60;99.90
16477;DHT22;8349;50.928;6.376;2022-12-29T10:59:00;18.10;99.90
16477;DHT22;8349;50.928;6.376;2022-12-29T11:01:30;17.70;99.90
16477;DHT22;8349;50.928;6.376;2022-12-29T11:03:59;18.80;99.90
16477;DHT22;8349;50.928;6.376;2022-12-29T11:06:29;18.00;99.90
16477;DHT22;8349;50.928;6.376;2022-12-29T11:08:56;17.40;99.90
16477;DHT22;8349;50.928;6.376;2022-12-29T11:11:24;16.70;99.90
16477;DHT22;8349;50.928;6.376;2022-12-29T11:13:57;15.50;99.90
16477;DHT22;8349;50.928;6.376;2022-12-29T11:16:28;15.50;99.90
16477;DHT22;8349;50.928;6.376;2022-12-29T11:18:56;15.30;99.90
16477;DHT22;8349;50.928;6.376;2022-12-29T11:21:25;14.60;99.90
16477;DHT22;8349;50.928;6.376;2022-12-29T11:23:55;14.10;99.90
16477;DHT22;8349;50.928;6.376;2022-12-29T11:26:22;13.20;99.90
16477;DHT22;8349;50.928;6.376;2022-12-29T11:31:43;12.70;99.90
16477;DHT22;8349;50.928;6.376;2022-12-29T11:34:16;12.30;99.90
16477;DHT22;8349;50.928;6.376;2022-12-29T11:36:42;12.10;99.90
16477;DHT22;8349;50.928;6.376;2022-12-29T11:39:16;12.10;99.90
16477;DHT22;8349;50.928;6.376;2022-12-29T11:41:51;12.30;99.90
16477;DHT22;8349;50.928;6.376;2022-12-29T11:44:18;12.20;99.90
16477;DHT22;8349;50.928;6.376;2022-12-29T11:46:46;12.10;99.90
16477;DHT22;8349;50.928;6.376;2022-12-29T11:49:17;11.90;99.90
16477;DHT22;8349;50.928;6.376;2022-12-29T11:51:45;11.80;99.90
16477;DHT22;8349;50.928;6.376;2022-12-29T11:54:15;11.80;99.90
16477;DHT22;8349;50.928;6.376;2022-12-29T11:56:43;11.80;99.90
16477;DHT22;8349;50.928;6.376;2022-12-29T11:59:34;11.80;99.90
16477;DHT22;8349;50.928;6.376;2022-12-29T12:02:08;11.70;99.90
16477;DHT22;8349;50.928;6.376;2022-12-29T12:04:37;11.90;99.90
16477;DHT22;8349;50.928;6.376;2022-12-29T12:07:07;12.00;99.90
16477;DHT22;8349;50.928;6.376;2022-12-29T12:09:38;12.00;99.90
16477;DHT22;8349;50.928;6.376;2022-12-29T12:12:13;12.00;99.90
16477;DHT22;8349;50.928;6.376;2022-12-29T12:14:43;12.50;99.90
16477;DHT22;8349;50.928;6.376;2022-12-29T12:17:36;13.00;99.90
16477;DHT22;8349;50.928;6.376;2022-12-29T12:20:13;14.80;99.90
16477;DHT22;8349;50.928;6.376;2022-12-29T12:22:44;15.90;99.90
16477;DHT22;8349;50.928;6.376;2022-12-29T12:25:12;18.10;99.90
16477;DHT22;8349;50.928;6.376;2022-12-29T12:27:43;16.10;99.90
16477;DHT22;8349;50.928;6.376;2022-12-29T12:30:13;15.30;99.90
16477;DHT22;8349;50.928;6.376;2022-12-29T12:32:44;13.90;99.90
16477;DHT22;8349;50.928;6.376;2022-12-29T12:35:12;13.40;99.90
16477;DHT22;8349;50.928;6.376;2022-12-29T12:37:46;13.00;99.90
16477;DHT22;8349;50.928;6.376;2022-12-29T12:43:05;13.20;99.90
16477;DHT22;8349;50.928;6.376;2022-12-29T12:45:38;12.60;99.90
16477;DHT22;8349;50.928;6.376;2022-12-29T12:48:14;12.50;99.90
16477;DHT22;8349;50.928;6.376;2022-12-29T12:50:48;12.10;99.90
16477;DHT22;8349;50.928;6.376;2022-12-29T12:53:19;11.90;99.90
16477;DHT22;8349;50.928;6.376;2022-12-29T12:55:53;11.70;99.90
16477;DHT22;8349;50.928;6.376;2022-12-29T12:58:24;11.60;99.90
16477;DHT22;8349;50.928;6.376;2022-12-29T13:00:57;11.60;99.90
16477;DHT22;8349;50.928;6.376;2022-12-29T13:03:31;11.60;99.90
16477;DHT22;8349;50.928;6.376;2022-12-29T13:06:09;11.50;99.90
16477;DHT22;8349;50.928;6.376;2022-12-29T13:08:49;11.50;99.90
16477;DHT22;8349;50.928;6.376;2022-12-29T13:11:20;11.40;99.90
16477;DHT22;8349;50.928;6.376;2022-12-29T13:16:38;11.40;99.90
16477;DHT22;8349;50.928;6.376;2022-12-29T13:19:10;11.30;99.90
16477;DHT22;8349;50.928;6.376;2022-12-29T13:21:45;11.40;99.90
16477;DHT22;8349;50.928;6.376;2022-12-29T13:24:15;11.30;99.90
16477;DHT22;8349;50.928;6.376;2022-12-29T13:26:45;11.30;99.90
16477;DHT22;8349;50.928;6.376;2022-12-29T13:29:15;11.40;99.90
16477;DHT22;8349;50.928;6.376;2022-12-29T13:31:45;11.30;99.90
16477;DHT22;8349;50.928;6.376;2022-12-29T13:34:20;11.20;99.90
16477;DHT22;8349;50.928;6.376;2022-12-29T13:36:48;11.30;99.90
16477;DHT22;8349;50.928;6.376;2022-12-29T13:39:16;11.30;99.90
16477;DHT22;8349;50.928;6.376;2022-12-29T13:41:45;11.30;99.90
16477;DHT22;8349;50.928;6.376;2022-12-29T13:44:14;11.30;99.90
16477;DHT22;8349;50.928;6.376;2022-12-29T13:46:43;11.20;99.90
16477;DHT22;8349;50.928;6.376;2022-12-29T13:49:12;11.10;99.90
16477;DHT22;8349;50.928;6.376;2022-12-29T13:51:42;11.20;99.90
16477;DHT22;8349;50.928;6.376;2022-12-29T13:54:13;11.10;99.90
16477;DHT22;8349;50.928;6.376;2022-12-29T13:56:42;11.10;99.90
16477;DHT22;8349;50.928;6.376;2022-12-29T13:59:15;11.20;99.90
16477;DHT22;8349;50.928;6.376;2022-12-29T14:01:43;11.10;99.90
16477;DHT22;8349;50.928;6.376;2022-12-29T14:04:13;11.10;99.90
16477;DHT22;8349;50.928;6.376;2022-12-29T14:06:40;11.00;99.90
16477;DHT22;8349;50.928;6.376;2022-12-29T14:11:51;11.00;99.90
16477;DHT22;8349;50.928;6.376;2022-12-29T14:14:18;11.00;99.90
16477;DHT22;8349;50.928;6.376;2022-12-29T14:16:46;11.00;99.90
16477;DHT22;8349;50.928;6.376;2022-12-29T14:19:14;11.00;99.90
16477;DHT22;8349;50.928;6.376;2022-12-29T14:21:49;11.00;99.90
16477;DHT22;8349;50.928;6.376;2022-12-29T14:24:26;11.00;99.90
16477;DHT22;8349;50.928;6.376;2022-12-29T14:26:55;10.90;99.90
16477;DHT22;8349;50.928;6.376;2022-12-29T14:34:55;10.80;99.90
16477;DHT22;8349;50.928;6.376;2022-12-29T14:37:23;10.80;99.90
16477;DHT22;8349;50.928;6.376;2022-12-29T14:39:54;10.80;99.90
16477;DHT22;8349;50.928;6.376;2022-12-29T14:42:29;10.80;99.90
16477;DHT22;8349;50.928;6.376;2022-12-29T14:44:57;10.70;99.90
16477;DHT22;8349;50.928;6.376;2022-12-29T14:47:26;10.70;99.90
16477;DHT22;8349;50.928;6.376;2022-12-29T14:49:54;10.70;99.90
16477;DHT22;8349;50.928;6.376;2022-12-29T14:52:22;10.70;99.90
16477;DHT22;8349;50.928;6.376;2022-12-29T14:54:51;10.70;99.90
16477;DHT22;8349;50.928;6.376;2022-12-29T15:00:12;10.70;99.90
16477;DHT22;8349;50.928;6.376;2022-12-29T15:02:42;10.60;99.90
16477;DHT22;8349;50.928;6.376;2022-12-29T15:05:22;10.60;99.90
16477;DHT22;8349;50.928;6.376;2022-12-29T15:07:49;10.60;99.90
16477;DHT22;8349;50.928;6.376;2022-12-29T15:10:16;10.60;99.90
16477;DHT22;8349;50.928;6.376;2022-12-29T15:12:45;10.50;99.90
16477;DHT22;8349;50.928;6.376;2022-12-29T15:15:20;10.50;99.90
16477;DHT22;8349;50.928;6.376;2022-12-29T15:17:47;10.50;99.90
16477;DHT22;8349;50.928;6.376;2022-12-29T15:20:16;10.50;99.90
16477;DHT22;8349;50.928;6.376;2022-12-29T15:22:43;10.50;99.90
16477;DHT22;8349;50.928;6.376;2022-12-29T15:25:12;10.50;99.90
16477;DHT22;8349;50.928;6.376;2022-12-29T15:27:41;10.50;99.90
16477;DHT22;8349;50.928;6.376;2022-12-29T15:30:11;10.50;99.90
16477;DHT22;8349;50.928;6.376;2022-12-29T15:32:41;10.40;99.90
16477;DHT22;8349;50.928;6.376;2022-12-29T15:35:22;10.30;99.90
16477;DHT22;8349;50.928;6.376;2022-12-29T15:37:48;10.20;99.90
16477;DHT22;8349;50.928;6.376;2022-12-29T15:40:21;10.20;99.90
16477;DHT22;8349;50.928;6.376;2022-12-29T15:42:52;10.10;99.90
16477;DHT22;8349;50.928;6.376;2022-12-29T15:45:21;10.00;99.90
16477;DHT22;8349;50.928;6.376;2022-12-29T15:47:53;9.90;99.90
16477;DHT22;8349;50.928;6.376;2022-12-29T15:50:22;9.80;99.90
16477;DHT22;8349;50.928;6.376;2022-12-29T15:52:51;9.80;99.90
16477;DHT22;8349;50.928;6.376;2022-12-29T15:55:19;9.70;99.90
16477;DHT22;8349;50.928;6.376;2022-12-29T15:57:46;9.70;99.90
16477;DHT22;8349;50.928;6.376;2022-12-29T16:00:23;9.70;99.90
16477;DHT22;8349;50.928;6.376;2022-12-29T16:02:51;9.70;99.90
16477;DHT22;8349;50.928;6.376;2022-12-29T16:05:19;9.70;99.90
16477;DHT22;8349;50.928;6.376;2022-12-29T16:07:53;9.70;99.90
16477;DHT22;8349;50.928;6.376;2022-12-29T16:10:22;9.70;99.90
16477;DHT22;8349;50.928;6.376;2022-12-29T16:12:51;9.70;99.90
16477;DHT22;8349;50.928;6.376;2022-12-29T16:15:18;9.60;99.90
16477;DHT22;8349;50.928;6.376;2022-12-29T16:17:46;9.50;99.90
16477;DHT22;8349;50.928;6.376;2022-12-29T16:20:15;9.40;99.90
16477;DHT22;8349;50.928;6.376;2022-12-29T16:22:47;9.40;99.90
16477;DHT22;8349;50.928;6.376;2022-12-29T16:25:15;9.40;99.90
16477;DHT22;8349;50.928;6.376;2022-12-29T16:27:44;9.40;99.90
16477;DHT22;8349;50.928;6.376;2022-12-29T16:30:16;9.40;99.90
16477;DHT22;8349;50.928;6.376;2022-12-29T16:32:45;9.50;99.90
16477;DHT22;8349;50.928;6.376;2022-12-29T16:35:13;9.40;99.90
16477;DHT22;8349;50.928;6.376;2022-12-29T16:37:42;9.40;99.90
16477;DHT22;8349;50.928;6.376;2022-12-29T16:42:59;9.30;99.90
16477;DHT22;8349;50.928;6.376;2022-12-29T16:48:16;9.20;99.90
16477;DHT22;8349;50.928;6.376;2022-12-29T16:50:44;9.30;99.90
16477;DHT22;8349;50.928;6.376;2022-12-29T16:53:17;9.30;99.90
16477;DHT22;8349;50.928;6.376;2022-12-29T16:55:45;9.30;99.90
16477;DHT22;8349;50.928;6.376;2022-12-29T16:58:14;9.40;99.90
16477;DHT22;8349;50.928;6.376;2022-12-29T17:00:43;9.40;99.90
16477;DHT22;8349;50.928;6.376;2022-12-29T17:03:11;9.40;99.90
16477;DHT22;8349;50.928;6.376;2022-12-29T17:05:38;9.40;99.90
16477;DHT22;8349;50.928;6.376;2022-12-29T17:08:13;9.40;99.90
16477;DHT22;8349;50.928;6.376;2022-12-29T17:10:41;9.40;99.90
16477;DHT22;8349;50.928;6.376;2022-12-29T17:13:23;9.30;99.90
16477;DHT22;8349;50.928;6.376;2022-12-29T17:15:50;9.30;99.90
16477;DHT22;8349;50.928;6.376;2022-12-29T17:18:17;9.20;99.90
16477;DHT22;8349;50.928;6.376;2022-12-29T17:20:44;9.20;99.90
16477;DHT22;8349;50.928;6.376;2022-12-29T17:23:12;9.20;99.90
16477;DHT22;8349;50.928;6.376;2022-12-29T17:25:40;9.20;99.90
16477;DHT22;8349;50.928;6.376;2022-12-29T17:28:10;9.20;99.90
16477;DHT22;8349;50.928;6.376;2022-12-29T17:30:40;9.20;99.90
16477;DHT22;8349;50.928;6.376;2022-12-29T17:33:10;9.20;99.90
16477;DHT22;8349;50.928;6.376;2022-12-29T17:35:38;9.20;99.90
16477;DHT22;8349;50.928;6.376;2022-12-29T17:38:10;9.20;99.90
16477;DHT22;8349;50.928;6.376;2022-12-29T17:40:41;9.30;99.90
16477;DHT22;8349;50.928;6.376;2022-12-29T17:43:08;9.30;99.90
16477;DHT22;8349;50.928;6.376;2022-12-29T17:45:37;9.40;99.90
16477;DHT22;8349;50.928;6.376;2022-12-29T17:48:07;9.30;99.90
16477;DHT22;8349;50.928;6.376;2022-12-29T17:50:37;9.10;99.90
16477;DHT22;8349;50.928;6.376;2022-12-29T17:53:04;8.60;99.90
16477;DHT22;8349;50.928;6.376;2022-12-29T17:55:31;8.40;99.90
16477;DHT22;8349;50.928;6.376;2022-12-29T17:57:58;8.30;99.90
16477;DHT22;8349;50.928;6.376;2022-12-29T18:00:26;8.20;99.90
16477;DHT22;8349;50.928;6.376;2022-12-29T18:02:53;8.10;99.90
16477;DHT22;8349;50.928;6.376;2022-12-29T18:05:22;8.10;99.90
16477;DHT22;8349;50.928;6.376;2022-12-29T18:07:50;8.10;99.90
16477;DHT22;8349;50.928;6.376;2022-12-29T18:10:17;8.00;99.90
16477;DHT22;8349;50.928;6.376;2022-12-29T18:12:44;8.10;99.90
16477;DHT22;8349;50.928;6.376;2022-12-29T18:15:16;8.10;99.90
16477;DHT22;8349;50.928;6.376;2022-12-29T18:17:43;8.10;99.90
16477;DHT22;8349;50.928;6.376;2022-12-29T18:20:10;8.10;99.90
16477;DHT22;8349;50.928;6.376;2022-12-29T18:22:38;8.10;99.90
16477;DHT22;8349;50.928;6.376;2022-12-29T18:25:12;8.10;99.90
16477;DHT22;8349;50.928;6.376;2022-12-29T18:27:42;8.00;99.90
16477;DHT22;8349;50.928;6.376;2022-12-29T18:30:12;8.00;99.90
16477;DHT22;8349;50.928;6.376;2022-12-29T18:32:38;8.00;99.90
16477;DHT22;8349;50.928;6.376;2022-12-29T18:35:08;8.10;99.90
16477;DHT22;8349;50.928;6.376;2022-12-29T18:37:36;8.10;99.90
16477;DHT22;8349;50.928;6.376;2022-12-29T18:40:05;8.20;99.90
16477;DHT22;8349;50.928;6.376;2022-12-29T18:42:31;8.10;99.90
16477;DHT22;8349;50.928;6.376;2022-12-29T18:44:58;8.10;99.90
16477;DHT22;8349;50.928;6.376;2022-12-29T18:47:25;8.00;99.90
16477;DHT22;8349;50.928;6.376;2022-12-29T18:49:52;8.00;99.90
16477;DHT22;8349;50.928;6.376;2022-12-29T18:52:19;8.00;99.90
16477;DHT22;8349;50.928;6.376;2022-12-29T18:54:45;7.90;99.90
16477;DHT22;8349;50.928;6.376;2022-12-29T18:57:14;7.90;99.90
16477;DHT22;8349;50.928;6.376;2022-12-29T18:59:41;7.90;99.90
16477;DHT22;8349;50.928;6.376;2022-12-29T19:02:10;7.90;99.90
16477;DHT22;8349;50.928;6.376;2022-12-29T19:04:40;7.90;99.90
16477;DHT22;8349;50.928;6.376;2022-12-29T19:07:07;7.90;99.90
16477;DHT22;8349;50.928;6.376;2022-12-29T19:09:34;7.80;99.90
16477;DHT22;8349;50.928;6.376;2022-12-29T19:12:01;7.80;99.90
16477;DHT22;8349;50.928;6.376;2022-12-29T19:14:29;7.70;99.90
16477;DHT22;8349;50.928;6.376;2022-12-29T19:16:56;7.80;99.90
16477;DHT22;8349;50.928;6.376;2022-12-29T19:19:22;7.70;99.90
16477;DHT22;8349;50.928;6.376;2022-12-29T19:21:49;7.80;99.90
16477;DHT22;8349;50.928;6.376;2022-12-29T19:24:20;7.70;99.90
16477;DHT22;8349;50.928;6.376;2022-12-29T19:26:47;7.70;99.90
16477;DHT22;8349;50.928;6.376;2022-12-29T19:29:14;7.80;99.90
16477;DHT22;8349;50.928;6.376;2022-12-29T19:31:42;7.80;99.90
16477;DHT22;8349;50.928;6.376;2022-12-29T19:34:11;7.80;99.90
16477;DHT22;8349;50.928;6.376;2022-12-29T19:36:38;7.80;99.90
16477;DHT22;8349;50.928;6.376;2022-12-29T19:39:05;7.80;99.90
16477;DHT22;8349;50.928;6.376;2022-12-29T19:41:32;7.70;99.90
16477;DHT22;8349;50.928;6.376;2022-12-29T19:43:59;7.70;99.90
16477;DHT22;8349;50.928;6.376;2022-12-29T19:46:26;7.60;99.90
16477;DHT22;8349;50.928;6.376;2022-12-29T19:48:54;7.60;99.90
16477;DHT22;8349;50.928;6.376;2022-12-29T19:51:23;7.60;99.90
16477;DHT22;8349;50.928;6.376;2022-12-29T19:53:50;7.60;99.90
16477;DHT22;8349;50.928;6.376;2022-12-29T19:56:16;7.60;99.90
16477;DHT22;8349;50.928;6.376;2022-12-29T19:58:43;7.60;99.90
16477;DHT22;8349;50.928;6.376;2022-12-29T20:01:11;7.50;99.90
16477;DHT22;8349;50.928;6.376;2022-12-29T20:03:38;7.50;99.90
16477;DHT22;8349;50.928;6.376;2022-12-29T20:06:07;7.60;99.90
16477;DHT22;8349;50.928;6.376;2022-12-29T20:08:34;7.60;99.90
16477;DHT22;8349;50.928;6.376;2022-12-29T20:11:02;7.60;99.90
16477;DHT22;8349;50.928;6.376;2022-12-29T20:13:30;7.60;99.90
16477;DHT22;8349;50.928;6.376;2022-12-29T20:15:57;7.60;99.90
16477;DHT22;8349;50.928;6.376;2022-12-29T20:18:24;7.60;99.90
16477;DHT22;8349;50.928;6.376;2022-12-29T20:20:51;7.60;99.90
16477;DHT22;8349;50.928;6.376;2022-12-29T20:23:19;7.60;99.90
16477;DHT22;8349;50.928;6.376;2022-12-29T20:25:52;7.70;99.90
16477;DHT22;8349;50.928;6.376;2022-12-29T20:28:19;7.60;99.90
16477;DHT22;8349;50.928;6.376;2022-12-29T20:30:52;7.70;99.90